Latest Weather Observations for Perth

IDW60801

Issued at 6:02 pm WST Sunday 14 February 2016 (issued every 30 minutes, with the page automatically refreshed every 10 minutes)

About weather observations | Map of weather stations | Latest weather observations for WA | Other Formats
Station Details ID: 009225 Name: PERTH METRO Lat: -31.92 Lon: 115.87 Height: 24.9 m
Data from the previous 72 hours. | See also: Recent months at Perth
Date/Time
WST
Temp
°C
App
Temp
°C
Dew
Point
Rel
Hum
%
Delta-T
°C
Wind Press
QNH
hPa
Press
MSL
hPa
Rain
since 9 am
mm
Dir
 
Spd
km/h
Gust
km/h
Spd
kts
Gust
kts
14/06:00pm 30.5 26.8 6.4 22 12.9 SE 15 26 8 14 1016.8 1016.6 0.0
14/05:30pm 31.1 28.7 6.9 22 13.1 SE 9 20 5 11 1016.7 1016.5 0.0
14/05:00pm 31.3 28.3 7.7 23 12.9 SSE 13 24 7 13 1016.6 1016.4 0.0
14/04:30pm 31.7 28.9 8.7 24 12.8 SSE 13 20 7 11 1016.7 1016.5 0.0
14/04:00pm 31.5 29.1 8.5 24 12.8 SSE 11 19 6 10 1016.9 1016.7 0.0
14/03:30pm 31.3 28.6 8.9 25 12.5 SE 13 26 7 14 1017.2 1017.0 0.0
14/03:00pm 31.4 28.3 9.0 25 12.5 SE 15 26 8 14 1017.5 1017.3 0.0
14/02:30pm 30.9 28.7 9.2 26 12.2 SSE 11 22 6 12 1017.9 1017.7 0.0
14/02:00pm 31.0 28.8 9.3 26 12.2 SE 11 19 6 10 1018.4 1018.2 0.0
14/01:30pm 29.1 26.2 8.2 27 11.4 E 13 24 7 13 1018.7 1018.5 0.0
14/01:00pm 29.1 26.6 9.8 30 10.8 SE 13 26 7 14 1019.0 1018.8 0.0
14/12:30pm 28.6 25.7 9.8 31 10.5 SSE 15 24 8 13 1019.4 1019.2 0.0
14/12:00pm 27.1 24.5 9.5 33 9.7 ESE 13 24 7 13 1020.0 1019.8 0.0
14/11:30am 26.0 23.4 9.4 35 9.1 SE 13 24 7 13 1020.3 1020.1 0.0
14/11:00am 26.2 24.4 9.5 35 9.2 ESE 9 24 5 13 1020.6 1020.4 0.0
14/10:30am 25.5 23.3 9.3 36 8.9 ESE 11 20 6 11 1021.0 1020.8 0.0
14/10:00am 24.2 22.1 9.8 40 7.9 ESE 11 26 6 14 1021.0 1020.8 0.0
14/09:30am 23.0 20.5 9.8 43 7.2 E 13 20 7 11 1021.3 1021.1 0.0
14/09:00am 21.9 19.0 9.8 46 6.5 E 15 28 8 15 1021.6 1021.4 0.0
14/08:30am 20.7 18.7 10.2 51 5.7 ESE 11 26 6 14 1022.0 1021.9 0.0
14/08:00am 19.1 16.6 9.6 54 5.0 SE 13 24 7 13 1022.1 1022.0 0.0
14/07:30am 19.5 16.9 9.4 52 5.3 ESE 13 24 7 13 1022.2 1022.1 0.0
14/07:00am 18.2 15.6 9.3 56 4.6 SE 13 26 7 14 1022.2 1022.1 0.0
14/06:30am 17.2 14.9 8.9 58 4.3 ESE 11 30 6 16 1021.9 1021.8 0.0
14/06:00am 16.9 14.1 8.6 58 4.2 ESE 13 30 7 16 1021.5 1021.3 0.0
14/05:30am 16.9 14.1 8.6 58 4.3 ESE 13 22 7 12 1021.6 1021.4 0.0
14/05:00am 16.8 14.4 8.5 58 4.2 ESE 11 19 6 10 1021.2 1021.0 0.0
14/04:30am 17.0 14.2 8.4 57 4.4 ESE 13 24 7 13 1020.8 1020.6 0.0
14/04:00am 17.4 14.7 8.8 57 4.4 ESE 13 22 7 12 1020.3 1020.1 0.0
14/03:30am 17.7 15.0 8.8 56 4.6 ESE 13 26 7 14 1019.8 1019.6 0.0
14/03:00am 18.1 15.4 8.9 55 4.8 SE 13 24 7 13 1019.8 1019.6 0.0
14/02:30am 18.7 16.4 8.9 53 5.1 ESE 11 24 6 13 1019.7 1019.5 0.0
14/02:00am 19.2 16.8 8.8 51 5.4 ESE 11 26 6 14 1019.8 1019.6 0.0
14/01:30am 20.0 16.5 8.7 48 5.9 ESE 17 30 9 16 1019.7 1019.5 0.0
14/01:00am 20.7 17.6 8.7 46 6.3 SE 15 24 8 13 1019.7 1019.5 0.0
14/12:30am 21.6 18.5 8.8 44 6.8 SE 15 32 8 17 1019.7 1019.5 0.0
14/12:00am 22.5 19.5 7.9 39 7.6 SE 13 22 7 12 1019.6 1019.4 0.0
 
Date/Time
WST
Temp
°C
App
Temp
°C
Dew
Point
Rel
Hum
%
Delta-T
°C
Wind Press
QNH
hPa
Press
MSL
hPa
Rain
since 9 am
mm
Dir
 
Spd
km/h
Gust
km/h
Spd
kts
Gust
kts
13/11:30pm 23.3 19.5 7.4 36 8.3 SE 17 32 9 17 1019.4 1019.2 0.0
13/11:00pm 23.6 20.5 7.3 35 8.5 SE 13 19 7 10 1019.3 1019.1 0.0
13/10:30pm 24.2 21.0 6.9 33 9.0 SE 13 22 7 12 1019.5 1019.3 0.0
13/10:00pm 24.4 21.3 7.1 33 9.0 SE 13 20 7 11 1019.6 1019.4 0.0
13/09:30pm 23.9 21.6 9.1 39 8.0 SE 11 17 6 9 1019.6 1019.4 0.0
13/09:00pm 22.6 22.5 13.4 56 5.3 SSW 6 9 3 5 1019.2 1019.0 0.0
13/08:30pm 23.3 23.7 14.8 59 5.0 SW 6 7 3 4 1019.0 1018.8 0.0
13/08:00pm 23.5 23.8 15.0 59 5.1 SSW 7 11 4 6 1018.7 1018.5 0.0
13/07:30pm 24.0 24.0 15.2 58 5.3 SW 9 17 5 9 1018.2 1018.0 0.0
13/07:00pm 24.1 23.7 15.3 58 5.3 SW 11 17 6 9 1017.7 1017.5 0.0
13/06:30pm 24.5 23.4 15.4 57 5.5 SW 15 28 8 15 1017.7 1017.5 0.0
13/06:00pm 25.3 23.3 15.0 53 6.2 SW 19 32 10 17 1017.4 1017.2 0.0
13/05:30pm 25.7 23.3 14.5 50 6.7 SW 20 35 11 19 1017.3 1017.1 0.0
13/05:00pm 25.9 23.2 14.7 50 6.7 SSW 22 35 12 19 1017.4 1017.2 0.0
13/04:30pm 26.5 23.9 13.9 45 7.5 SW 20 32 11 17 1017.4 1017.2 0.0
13/04:00pm 27.4 25.9 14.1 44 7.9 SSW 15 26 8 14 1017.4 1017.2 0.0
13/03:30pm 29.3 26.8 13.5 38 9.4 SW 19 26 10 14 1017.4 1017.2 0.0
13/03:00pm 31.0 28.1 8.1 24 12.6 S 13 37 7 20 1017.3 1017.1 0.0
13/02:30pm 29.8 26.9 8.2 26 11.9 SSE 13 20 7 11 1017.9 1017.7 0.0
13/02:00pm 29.7 27.6 8.2 26 11.8 SSE 9 19 5 10 1018.2 1018.0 0.0
13/01:30pm 29.4 27.1 9.0 28 11.3 SSE 11 26 6 14 1018.6 1018.4 0.0
13/01:00pm 28.0 25.0 9.3 31 10.3 SSE 15 24 8 13 1019.1 1018.9 0.0
13/12:30pm 28.2 26.0 10.9 34 9.8 SE 13 26 7 14 1019.6 1019.4 0.0
13/12:00pm 27.2 25.1 11.3 37 9.0 SSE 13 22 7 12 1019.9 1019.7 0.0
13/11:30am 26.4 24.1 11.7 40 8.4 SE 15 22 8 12 1020.3 1020.1 0.0
13/11:00am 26.2 24.5 12.6 43 7.9 SSE 13 22 7 12 1020.5 1020.3 0.0
13/10:30am 24.9 23.3 12.8 47 7.0 SE 13 24 7 13 1020.8 1020.6 0.0
13/10:00am 24.0 22.2 13.2 50 6.2 SSE 15 28 8 15 1021.0 1020.8 0.0
13/09:30am 23.3 21.2 13.5 54 5.7 SSE 17 28 9 15 1021.1 1020.9 0.0
13/09:00am 22.6 20.5 13.7 57 5.2 SE 17 28 9 15 1021.5 1021.3 0.0
13/08:30am 22.6 21.5 14.4 60 4.8 SE 13 24 7 13 1021.5 1021.3 0.0
13/08:00am 21.6 19.0 13.8 61 4.5 SSE 20 32 11 17 1021.5 1021.3 0.0
13/07:30am 21.4 19.0 13.8 62 4.4 SSE 19 28 10 15 1021.4 1021.2 0.0
13/07:00am 20.9 20.6 14.5 67 3.7 SSE 9 15 5 8 1021.1 1020.9 0.0
13/06:30am 20.7 20.1 14.6 68 3.6 SSE 11 19 6 10 1020.8 1020.6 0.0
13/06:00am 20.7 19.4 14.8 69 3.5 SE 15 22 8 12 1020.4 1020.2 0.0
13/05:30am 20.4 19.1 14.7 70 3.3 SSE 15 24 8 13 1020.1 1019.9 0.0
13/05:00am 19.4 18.4 14.6 74 2.8 SSE 13 22 7 12 1019.9 1019.7 0.0
13/04:30am 19.2 18.2 14.5 74 2.7 S 13 19 7 10 1019.5 1019.3 0.0
13/04:00am 19.5 18.5 14.5 73 2.9 S 13 20 7 11 1019.1 1018.9 0.0
13/03:30am 19.7 19.1 14.7 73 2.9 S 11 22 6 12 1018.8 1018.6 0.0
13/03:00am 20.2 19.4 15.0 72 3.1 S 13 19 7 10 1018.3 1018.1 0.0
13/02:30am 20.3 19.9 15.1 72 3.1 S 11 20 6 11 1018.2 1018.0 0.0
13/02:00am 20.4 19.2 15.0 71 3.2 S 15 24 8 13 1018.1 1017.9 0.0
13/01:30am 20.5 20.1 15.3 72 3.1 S 11 20 6 11 1018.0 1017.8 0.0
13/01:00am 20.7 20.0 15.3 71 3.2 S 13 24 7 13 1017.8 1017.6 0.0
13/12:30am 21.1 20.0 15.4 70 3.4 S 15 22 8 12 1017.9 1017.7 0.0
13/12:00am 21.4 20.7 15.5 69 3.5 S 13 22 7 12 1017.9 1017.7 0.0
 
Date/Time
WST
Temp
°C
App
Temp
°C
Dew
Point
Rel
Hum
%
Delta-T
°C
Wind Press
QNH
hPa
Press
MSL
hPa
Rain
since 9 am
mm
Dir
 
Spd
km/h
Gust
km/h
Spd
kts
Gust
kts
12/11:30pm 22.2 21.4 16.0 68 3.7 S 15 26 8 14 1017.8 1017.6 0.0
12/11:00pm 22.7 21.1 16.0 66 4.0 S 19 30 10 16 1017.7 1017.5 0.0
12/10:30pm 22.9 22.8 16.9 69 3.7 S 13 24 7 13 1017.7 1017.5 0.0
12/10:00pm 22.9 23.1 17.6 72 3.3 SSW 13 26 7 14 1017.7 1017.5 0.0
12/09:30pm 22.8 23.1 17.9 74 3.1 SSW 13 28 7 15 1017.6 1017.4 0.0
12/09:00pm 22.8 22.3 17.9 74 3.1 SSW 17 30 9 16 1017.5 1017.3 0.0
12/08:30pm 22.7 22.3 18.0 75 2.9 SSW 17 30 9 16 1017.3 1017.1 0.0
12/08:00pm 22.8 22.9 18.3 76 2.8 SSW 15 24 8 13 1017.0 1016.8 0.0
12/07:30pm 23.0 22.2 17.9 73 3.2 SSW 19 33 10 18 1016.8 1016.6 0.0
12/07:00pm 23.3 22.8 17.7 71 3.5 SW 17 35 9 19 1016.5 1016.3 0.0
12/06:30pm 24.1 23.5 17.6 67 4.1 SSW 17 26 9 14 1016.4 1016.2 0.0
12/06:00pm 24.7 23.6 17.7 65 4.4 SW 20 32 11 17 1016.3 1016.1 0.0
12/05:30pm 25.2 23.8 17.1 60 5.0 SW 20 39 11 21 1016.1 1015.9 0.0
12/05:00pm 25.1 23.4 17.1 61 5.0 SW 22 41 12 22 1015.9 1015.7 0.0
12/04:30pm 25.8 23.6 16.9 58 5.5 SW 24 39 13 21 1015.7 1015.5 0.0
12/04:00pm 26.2 24.2 16.4 54 6.0 SSW 22 35 12 19 1015.8 1015.6 0.0
12/03:30pm 26.8 25.1 17.3 56 6.0 SSW 22 35 12 19 1015.8 1015.6 0.0
12/03:00pm 28.2 26.7 16.8 50 7.1 SW 20 33 11 18 1015.9 1015.7 0.0
12/02:30pm 27.8 26.0 16.1 49 7.2 SSW 20 32 11 17 1016.0 1015.8 0.0
12/02:00pm 27.3 25.9 16.9 53 6.5 SSW 20 32 11 17 1016.1 1015.9 0.0
12/01:30pm 28.1 26.3 17.0 51 7.0 SSW 22 33 12 18 1016.2 1016.0 0.0
12/01:00pm 27.3 25.9 16.9 53 6.5 SSW 20 33 11 18 1016.5 1016.3 0.0
12/12:30pm 28.7 28.3 17.2 49 7.2 SW 15 30 8 16 1016.6 1016.4 0.0
12/12:00pm 29.2 28.9 18.3 51 7.0 SW 17 24 9 13 1016.7 1016.5 0.0
12/11:30am 29.0 28.9 17.8 50 7.1 SSW 15 24 8 13 1016.8 1016.6 0.0
12/11:00am 28.0 27.9 17.8 54 6.5 SW 15 26 8 14 1017.1 1016.9 0.0
12/10:30am 27.6 28.1 18.3 57 5.9 SW 13 22 7 12 1017.2 1017.0 0.0
12/10:00am 27.8 28.6 18.2 56 6.1 S 11 17 6 9 1017.2 1017.0 0.0
12/09:30am 26.0 26.9 17.6 60 5.3 SW 9 17 5 9 1017.4 1017.2 0.0
12/09:00am 25.2 26.9 18.4 66 4.3 S 7 13 4 7 1017.5 1017.3 0.0
12/08:30am 23.5 24.6 17.9 71 3.5 SSW 9 15 5 8 1017.4 1017.2 0.0
12/08:00am 22.2 23.1 17.6 75 2.8 SSE 9 17 5 9 1017.4 1017.2 0.0
12/07:30am 21.0 21.4 17.2 79 2.3 S 11 19 6 10 1017.4 1017.2 0.0
12/07:00am 20.0 20.3 17.0 83 1.8 S 11 17 6 9 1017.2 1017.0 0.0
12/06:30am 19.5 20.1 16.9 85 1.6 S 9 17 5 9 1017.0 1016.8 0.0
12/06:00am 19.1 20.1 16.9 87 1.3 SSW 7 15 4 8 1016.5 1016.3 0.0
12/05:30am 19.3 19.6 16.9 86 1.5 S 11 20 6 11 1016.1 1015.9 0.0
12/05:00am 19.8 21.1 17.6 87 1.3 SSE 7 11 4 6 1015.7 1015.5 0.0
12/04:30am 20.2 21.6 17.8 86 1.5 S 7 13 4 7 1015.3 1015.1 0.0
12/04:00am 20.5 21.6 18.1 86 1.5 S 9 17 5 9 1014.8 1014.6 0.0
12/03:30am 20.9 22.0 18.1 84 1.7 S 9 13 5 7 1014.7 1014.5 0.0
12/03:00am 21.2 21.9 18.0 82 2.0 S 11 19 6 10 1014.3 1014.1 0.0
12/02:30am 21.4 22.1 18.8 85 1.6 SSW 13 20 7 11 1014.0 1013.8 0.0
12/02:00am 21.7 23.8 19.4 87 1.5 S 7 13 4 7 1013.7 1013.5 0.0
12/01:30am 21.9 23.7 19.6 87 1.5 S 9 11 5 6 1013.9 1013.7 0.0
12/01:00am 22.2 24.1 19.7 86 1.6 SSW 9 17 5 9 1013.9 1013.7 0.0
12/12:30am 22.4 24.3 19.8 85 1.7 SSW 9 15 5 8 1013.9 1013.7 0.0
12/12:00am 22.5 24.5 20.0 86 1.6 SSW 9 17 5 9 1014.0 1013.8 0.0
 
Date/Time
WST
Temp
°C
App
Temp
°C
Dew
Point
Rel
Hum
%
Delta-T
°C
Wind Press
QNH
hPa
Press
MSL
hPa
Rain
since 9 am
mm
Dir
 
Spd
km/h
Gust
km/h
Spd
kts
Gust
kts
11/11:30pm 22.6 23.9 20.1 86 1.6 SSW 13 20 7 11 1014.0 1013.8 0.0
11/11:00pm 22.7 24.8 20.2 86 1.6 SSW 9 19 5 10 1014.3 1014.1 0.0
11/10:30pm 22.7 24.3 20.0 85 1.7 SW 11 19 6 10 1014.2 1014.0 0.0
11/10:00pm 22.9 24.6 20.1 84 1.8 SW 11 19 6 10 1014.2 1014.0 0.0
11/09:30pm 23.1 24.8 20.1 83 1.9 SW 11 20 6 11 1013.9 1013.7 0.0
11/09:00pm 23.3 24.1 19.9 81 2.2 SW 15 26 8 14 1013.7 1013.5 0.0
11/08:30pm 23.2 24.3 19.6 80 2.3 SW 13 20 7 11 1013.7 1013.5 0.0
11/08:00pm 23.5 23.3 19.4 78 2.6 SW 19 30 10 16 1013.5 1013.3 0.0
11/07:30pm 23.9 24.6 19.6 77 2.8 SW 15 24 8 13 1013.2 1013.0 0.0
11/07:00pm 24.8 26.5 20.1 75 3.1 WSW 11 20 6 11 1012.9 1012.7 0.0
11/06:30pm 26.2 27.5 20.1 69 4.0 WSW 13 22 7 12 1012.5 1012.3 0.0

Other Formats:

Comma delimited format used in spreadsheet applications
http://www.bom.gov.au/fwo/IDW60801/IDW60801.94608.axf

JavaScript Object Notation format (JSON) in row-major order
http://www.bom.gov.au/fwo/IDW60801/IDW60801.94608.json